sensor_id;sensor_type;location;lat;lon;timestamp;P1;durP1;ratioP1;P2;durP2;ratioP2
9799;SDS011;4939;52.00085300;4.17406100;2023-10-13T00:01:33;12.88;;;2.60;;
9799;SDS011;4939;52.00085300;4.17406100;2023-10-13T00:03:59;9.65;;;2.25;;
9799;SDS011;4939;52.00085300;4.17406100;2023-10-13T00:06:27;8.38;;;2.85;;
9799;SDS011;4939;52.00085300;4.17406100;2023-10-13T00:08:53;13.18;;;2.50;;
9799;SDS011;4939;52.00085300;4.17406100;2023-10-13T00:11:20;7.47;;;2.30;;
9799;SDS011;4939;52.00085300;4.17406100;2023-10-13T00:13:46;8.25;;;2.33;;
9799;SDS011;4939;52.00085300;4.17406100;2023-10-13T00:16:16;7.30;;;1.83;;
9799;SDS011;4939;52.00085300;4.17406100;2023-10-13T00:18:46;8.45;;;2.30;;
9799;SDS011;4939;52.00085300;4.17406100;2023-10-13T00:21:13;8.00;;;2.40;;
9799;SDS011;4939;52.00085300;4.17406100;2023-10-13T00:23:56;10.25;;;3.05;;
9799;SDS011;4939;52.00085300;4.17406100;2023-10-13T00:26:23;11.98;;;3.70;;
9799;SDS011;4939;52.00085300;4.17406100;2023-10-13T00:28:53;10.85;;;3.90;;
9799;SDS011;4939;52.00085300;4.17406100;2023-10-13T00:31:38;11.82;;;4.07;;
9799;SDS011;4939;52.00085300;4.17406100;2023-10-13T00:34:11;16.73;;;4.32;;
9799;SDS011;4939;52.00085300;4.17406100;2023-10-13T00:36:41;10.00;;;3.67;;
9799;SDS011;4939;52.00085300;4.17406100;2023-10-13T00:39:26;13.38;;;4.35;;
9799;SDS011;4939;52.00085300;4.17406100;2023-10-13T00:41:54;13.77;;;5.15;;
9799;SDS011;4939;52.00085300;4.17406100;2023-10-13T00:44:24;15.55;;;5.55;;
9799;SDS011;4939;52.00085300;4.17406100;2023-10-13T00:46:53;17.70;;;5.50;;
9799;SDS011;4939;52.00085300;4.17406100;2023-10-13T00:49:21;14.65;;;5.40;;
9799;SDS011;4939;52.00085300;4.17406100;2023-10-13T00:51:48;16.33;;;5.20;;
9799;SDS011;4939;52.00085300;4.17406100;2023-10-13T00:54:15;13.38;;;5.78;;
9799;SDS011;4939;52.00085300;4.17406100;2023-10-13T00:56:43;12.00;;;5.38;;
9799;SDS011;4939;52.00085300;4.17406100;2023-10-13T00:59:18;12.73;;;4.70;;
9799;SDS011;4939;52.00085300;4.17406100;2023-10-13T01:01:48;12.82;;;4.75;;
9799;SDS011;4939;52.00085300;4.17406100;2023-10-13T01:04:20;14.73;;;5.22;;
9799;SDS011;4939;52.00085300;4.17406100;2023-10-13T01:06:52;11.07;;;4.35;;
9799;SDS011;4939;52.00085300;4.17406100;2023-10-13T01:09:18;13.55;;;3.90;;
9799;SDS011;4939;52.00085300;4.17406100;2023-10-13T01:11:48;12.52;;;3.92;;
9799;SDS011;4939;52.00085300;4.17406100;2023-10-13T01:14:18;12.02;;;3.70;;
9799;SDS011;4939;52.00085300;4.17406100;2023-10-13T01:16:46;10.38;;;3.58;;
9799;SDS011;4939;52.00085300;4.17406100;2023-10-13T01:19:13;7.30;;;3.20;;
9799;SDS011;4939;52.00085300;4.17406100;2023-10-13T01:21:43;9.15;;;3.42;;
9799;SDS011;4939;52.00085300;4.17406100;2023-10-13T01:24:10;12.35;;;4.53;;
9799;SDS011;4939;52.00085300;4.17406100;2023-10-13T01:26:38;12.48;;;4.60;;
9799;SDS011;4939;52.00085300;4.17406100;2023-10-13T01:29:05;11.80;;;4.50;;
9799;SDS011;4939;52.00085300;4.17406100;2023-10-13T01:31:41;9.32;;;3.58;;
9799;SDS011;4939;52.00085300;4.17406100;2023-10-13T01:34:14;10.75;;;4.03;;
9799;SDS011;4939;52.00085300;4.17406100;2023-10-13T01:36:48;10.98;;;3.35;;
9799;SDS011;4939;52.00085300;4.17406100;2023-10-13T01:39:22;14.45;;;4.40;;
9799;SDS011;4939;52.00085300;4.17406100;2023-10-13T01:41:59;12.40;;;5.07;;
9799;SDS011;4939;52.00085300;4.17406100;2023-10-13T01:44:27;10.30;;;4.15;;
9799;SDS011;4939;52.00085300;4.17406100;2023-10-13T01:46:56;9.88;;;4.60;;
9799;SDS011;4939;52.00085300;4.17406100;2023-10-13T01:49:34;11.00;;;5.57;;
9799;SDS011;4939;52.00085300;4.17406100;2023-10-13T01:52:08;22.63;;;5.50;;
9799;SDS011;4939;52.00085300;4.17406100;2023-10-13T01:54:45;16.38;;;5.88;;
9799;SDS011;4939;52.00085300;4.17406100;2023-10-13T01:57:14;16.90;;;6.00;;
9799;SDS011;4939;52.00085300;4.17406100;2023-10-13T01:59:45;14.38;;;5.90;;
9799;SDS011;4939;52.00085300;4.17406100;2023-10-13T02:02:12;15.95;;;6.22;;
9799;SDS011;4939;52.00085300;4.17406100;2023-10-13T02:04:41;15.73;;;6.28;;
9799;SDS011;4939;52.00085300;4.17406100;2023-10-13T02:07:15;14.55;;;5.88;;
9799;SDS011;4939;52.00085300;4.17406100;2023-10-13T02:09:42;16.83;;;5.35;;
9799;SDS011;4939;52.00085300;4.17406100;2023-10-13T02:12:10;18.13;;;5.95;;
9799;SDS011;4939;52.00085300;4.17406100;2023-10-13T02:14:36;15.82;;;5.72;;
9799;SDS011;4939;52.00085300;4.17406100;2023-10-13T02:17:08;15.25;;;5.38;;
9799;SDS011;4939;52.00085300;4.17406100;2023-10-13T02:19:42;15.68;;;5.68;;
9799;SDS011;4939;52.00085300;4.17406100;2023-10-13T02:22:12;15.20;;;6.20;;
9799;SDS011;4939;52.00085300;4.17406100;2023-10-13T02:24:52;14.18;;;5.35;;
9799;SDS011;4939;52.00085300;4.17406100;2023-10-13T02:27:18;15.32;;;5.32;;
9799;SDS011;4939;52.00085300;4.17406100;2023-10-13T02:29:50;13.65;;;4.65;;
9799;SDS011;4939;52.00085300;4.17406100;2023-10-13T02:32:24;14.15;;;5.45;;
9799;SDS011;4939;52.00085300;4.17406100;2023-10-13T02:34:51;12.25;;;4.82;;
9799;SDS011;4939;52.00085300;4.17406100;2023-10-13T02:37:24;20.45;;;5.95;;
9799;SDS011;4939;52.00085300;4.17406100;2023-10-13T02:40:03;14.52;;;5.00;;
9799;SDS011;4939;52.00085300;4.17406100;2023-10-13T02:42:31;12.68;;;4.80;;
9799;SDS011;4939;52.00085300;4.17406100;2023-10-13T02:44:57;15.52;;;4.75;;
9799;SDS011;4939;52.00085300;4.17406100;2023-10-13T02:47:26;11.82;;;4.88;;
9799;SDS011;4939;52.00085300;4.17406100;2023-10-13T02:50:00;13.35;;;4.63;;
9799;SDS011;4939;52.00085300;4.17406100;2023-10-13T02:52:36;16.40;;;4.60;;
9799;SDS011;4939;52.00085300;4.17406100;2023-10-13T02:55:06;15.15;;;4.85;;
9799;SDS011;4939;52.00085300;4.17406100;2023-10-13T02:57:36;13.02;;;4.80;;
9799;SDS011;4939;52.00085300;4.17406100;2023-10-13T03:00:04;18.02;;;5.35;;
9799;SDS011;4939;52.00085300;4.17406100;2023-10-13T03:02:41;20.80;;;5.57;;
9799;SDS011;4939;52.00085300;4.17406100;2023-10-13T03:05:12;15.27;;;5.32;;
9799;SDS011;4939;52.00085300;4.17406100;2023-10-13T03:07:39;16.48;;;5.20;;
9799;SDS011;4939;52.00085300;4.17406100;2023-10-13T03:10:09;17.48;;;6.70;;
9799;SDS011;4939;52.00085300;4.17406100;2023-10-13T03:12:36;13.18;;;5.50;;
9799;SDS011;4939;52.00085300;4.17406100;2023-10-13T03:15:03;14.52;;;5.63;;
9799;SDS011;4939;52.00085300;4.17406100;2023-10-13T03:17:42;11.52;;;4.40;;
9799;SDS011;4939;52.00085300;4.17406100;2023-10-13T03:20:12;13.18;;;4.47;;
9799;SDS011;4939;52.00085300;4.17406100;2023-10-13T03:22:41;11.73;;;3.42;;
9799;SDS011;4939;52.00085300;4.17406100;2023-10-13T03:25:13;6.18;;;2.70;;
9799;SDS011;4939;52.00085300;4.17406100;2023-10-13T03:27:48;7.55;;;3.10;;
9799;SDS011;4939;52.00085300;4.17406100;2023-10-13T03:30:18;6.85;;;2.95;;
9799;SDS011;4939;52.00085300;4.17406100;2023-10-13T03:32:45;9.65;;;3.50;;
9799;SDS011;4939;52.00085300;4.17406100;2023-10-13T03:35:14;8.75;;;2.80;;
9799;SDS011;4939;52.00085300;4.17406100;2023-10-13T03:37:49;12.77;;;3.40;;
9799;SDS011;4939;52.00085300;4.17406100;2023-10-13T03:40:15;12.77;;;3.97;;
9799;SDS011;4939;52.00085300;4.17406100;2023-10-13T03:42:44;11.57;;;4.20;;
9799;SDS011;4939;52.00085300;4.17406100;2023-10-13T03:45:24;11.68;;;3.55;;
9799;SDS011;4939;52.00085300;4.17406100;2023-10-13T03:47:50;10.52;;;3.92;;
9799;SDS011;4939;52.00085300;4.17406100;2023-10-13T03:50:19;10.38;;;4.20;;
9799;SDS011;4939;52.00085300;4.17406100;2023-10-13T03:52:56;10.43;;;4.13;;
9799;SDS011;4939;52.00085300;4.17406100;2023-10-13T03:55:27;11.95;;;4.10;;
9799;SDS011;4939;52.00085300;4.17406100;2023-10-13T03:57:59;14.82;;;4.82;;
9799;SDS011;4939;52.00085300;4.17406100;2023-10-13T04:00:25;14.27;;;5.20;;
9799;SDS011;4939;52.00085300;4.17406100;2023-10-13T04:02:56;16.33;;;5.88;;
9799;SDS011;4939;52.00085300;4.17406100;2023-10-13T04:05:34;13.40;;;5.72;;
9799;SDS011;4939;52.00085300;4.17406100;2023-10-13T04:08:06;14.27;;;6.03;;
9799;SDS011;4939;52.00085300;4.17406100;2023-10-13T04:10:51;13.55;;;6.03;;
9799;SDS011;4939;52.00085300;4.17406100;2023-10-13T04:13:18;14.48;;;6.25;;
9799;SDS011;4939;52.00085300;4.17406100;2023-10-13T04:16:09;12.55;;;6.10;;
9799;SDS011;4939;52.00085300;4.17406100;2023-10-13T04:18:47;14.45;;;6.25;;
9799;SDS011;4939;52.00085300;4.17406100;2023-10-13T04:21:25;13.50;;;5.05;;
9799;SDS011;4939;52.00085300;4.17406100;2023-10-13T04:24:04;12.95;;;5.78;;
9799;SDS011;4939;52.00085300;4.17406100;2023-10-13T04:26:52;14.55;;;5.93;;
9799;SDS011;4939;52.00085300;4.17406100;2023-10-13T04:29:36;12.07;;;5.32;;
9799;SDS011;4939;52.00085300;4.17406100;2023-10-13T04:32:21;12.43;;;5.05;;
9799;SDS011;4939;52.00085300;4.17406100;2023-10-13T04:34:57;17.52;;;4.72;;
9799;SDS011;4939;52.00085300;4.17406100;2023-10-13T04:37:35;12.45;;;3.83;;
9799;SDS011;4939;52.00085300;4.17406100;2023-10-13T04:40:15;9.10;;;3.83;;
9799;SDS011;4939;52.00085300;4.17406100;2023-10-13T04:42:44;8.55;;;3.30;;
9799;SDS011;4939;52.00085300;4.17406100;2023-10-13T04:45:25;11.68;;;3.45;;
9799;SDS011;4939;52.00085300;4.17406100;2023-10-13T04:47:57;9.10;;;3.88;;
9799;SDS011;4939;52.00085300;4.17406100;2023-10-13T04:50:39;10.05;;;3.47;;
9799;SDS011;4939;52.00085300;4.17406100;2023-10-13T04:53:14;10.57;;;3.13;;
9799;SDS011;4939;52.00085300;4.17406100;2023-10-13T04:55:58;14.30;;;3.17;;
9799;SDS011;4939;52.00085300;4.17406100;2023-10-13T04:58:44;15.48;;;3.95;;
9799;SDS011;4939;52.00085300;4.17406100;2023-10-13T05:01:34;14.18;;;2.88;;
9799;SDS011;4939;52.00085300;4.17406100;2023-10-13T05:04:18;13.85;;;3.90;;
9799;SDS011;4939;52.00085300;4.17406100;2023-10-13T05:06:55;14.75;;;4.07;;
9799;SDS011;4939;52.00085300;4.17406100;2023-10-13T05:09:40;16.65;;;4.28;;
9799;SDS011;4939;52.00085300;4.17406100;2023-10-13T05:12:24;12.80;;;3.13;;
9799;SDS011;4939;52.00085300;4.17406100;2023-10-13T05:15:09;10.88;;;3.33;;
9799;SDS011;4939;52.00085300;4.17406100;2023-10-13T05:17:54;16.77;;;3.25;;
9799;SDS011;4939;52.00085300;4.17406100;2023-10-13T05:20:38;17.38;;;2.97;;
9799;SDS011;4939;52.00085300;4.17406100;2023-10-13T05:23:23;14.45;;;3.40;;
9799;SDS011;4939;52.00085300;4.17406100;2023-10-13T05:26:08;11.20;;;3.22;;
9799;SDS011;4939;52.00085300;4.17406100;2023-10-13T05:28:53;17.70;;;3.25;;
9799;SDS011;4939;52.00085300;4.17406100;2023-10-13T05:31:38;11.55;;;3.50;;
9799;SDS011;4939;52.00085300;4.17406100;2023-10-13T05:34:23;14.50;;;3.40;;
9799;SDS011;4939;52.00085300;4.17406100;2023-10-13T05:37:08;14.07;;;3.67;;
9799;SDS011;4939;52.00085300;4.17406100;2023-10-13T05:39:53;10.50;;;3.38;;
9799;SDS011;4939;52.00085300;4.17406100;2023-10-13T05:42:38;10.93;;;3.17;;
9799;SDS011;4939;52.00085300;4.17406100;2023-10-13T05:45:22;13.95;;;3.60;;
9799;SDS011;4939;52.00085300;4.17406100;2023-10-13T05:48:01;9.35;;;2.83;;
9799;SDS011;4939;52.00085300;4.17406100;2023-10-13T05:50:30;11.95;;;2.90;;
9799;SDS011;4939;52.00085300;4.17406100;2023-10-13T05:53:15;10.73;;;3.70;;
9799;SDS011;4939;52.00085300;4.17406100;2023-10-13T05:56:00;10.18;;;3.42;;
9799;SDS011;4939;52.00085300;4.17406100;2023-10-13T05:58:45;9.10;;;3.40;;
9799;SDS011;4939;52.00085300;4.17406100;2023-10-13T06:01:30;12.43;;;3.47;;
9799;SDS011;4939;52.00085300;4.17406100;2023-10-13T06:04:15;13.10;;;3.55;;
9799;SDS011;4939;52.00085300;4.17406100;2023-10-13T06:06:59;8.95;;;3.97;;
9799;SDS011;4939;52.00085300;4.17406100;2023-10-13T06:09:44;8.32;;;3.67;;
9799;SDS011;4939;52.00085300;4.17406100;2023-10-13T06:12:29;9.80;;;3.78;;
9799;SDS011;4939;52.00085300;4.17406100;2023-10-13T06:15:13;11.05;;;4.65;;
9799;SDS011;4939;52.00085300;4.17406100;2023-10-13T06:18:18;12.13;;;4.88;;
9799;SDS011;4939;52.00085300;4.17406100;2023-10-13T06:21:02;12.32;;;4.88;;
9799;SDS011;4939;52.00085300;4.17406100;2023-10-13T06:23:47;13.48;;;5.68;;
9799;SDS011;4939;52.00085300;4.17406100;2023-10-13T06:26:32;12.73;;;6.30;;
9799;SDS011;4939;52.00085300;4.17406100;2023-10-13T06:29:16;14.15;;;6.18;;
9799;SDS011;4939;52.00085300;4.17406100;2023-10-13T06:31:46;15.13;;;6.30;;
9799;SDS011;4939;52.00085300;4.17406100;2023-10-13T06:34:12;15.40;;;6.65;;
9799;SDS011;4939;52.00085300;4.17406100;2023-10-13T06:36:41;15.60;;;6.90;;
9799;SDS011;4939;52.00085300;4.17406100;2023-10-13T06:39:11;16.15;;;7.22;;
9799;SDS011;4939;52.00085300;4.17406100;2023-10-13T06:42:00;20.83;;;7.97;;
9799;SDS011;4939;52.00085300;4.17406100;2023-10-13T06:44:28;22.05;;;8.57;;
9799;SDS011;4939;52.00085300;4.17406100;2023-10-13T06:46:57;19.30;;;7.47;;
9799;SDS011;4939;52.00085300;4.17406100;2023-10-13T06:49:23;18.08;;;8.18;;
9799;SDS011;4939;52.00085300;4.17406100;2023-10-13T06:51:49;20.67;;;8.93;;
9799;SDS011;4939;52.00085300;4.17406100;2023-10-13T06:54:16;20.42;;;9.00;;
9799;SDS011;4939;52.00085300;4.17406100;2023-10-13T06:56:45;19.98;;;9.43;;
9799;SDS011;4939;52.00085300;4.17406100;2023-10-13T06:59:11;20.17;;;8.73;;
9799;SDS011;4939;52.00085300;4.17406100;2023-10-13T07:01:39;21.58;;;8.13;;
9799;SDS011;4939;52.00085300;4.17406100;2023-10-13T07:04:08;19.65;;;8.13;;
9799;SDS011;4939;52.00085300;4.17406100;2023-10-13T07:06:41;18.23;;;7.47;;
9799;SDS011;4939;52.00085300;4.17406100;2023-10-13T07:09:13;17.48;;;7.00;;
9799;SDS011;4939;52.00085300;4.17406100;2023-10-13T07:12:01;14.95;;;6.57;;
9799;SDS011;4939;52.00085300;4.17406100;2023-10-13T07:14:45;15.57;;;6.25;;
9799;SDS011;4939;52.00085300;4.17406100;2023-10-13T07:17:17;16.77;;;6.13;;
9799;SDS011;4939;52.00085300;4.17406100;2023-10-13T07:19:54;14.57;;;5.95;;
9799;SDS011;4939;52.00085300;4.17406100;2023-10-13T07:22:38;15.05;;;5.53;;
9799;SDS011;4939;52.00085300;4.17406100;2023-10-13T07:25:20;17.42;;;6.30;;
9799;SDS011;4939;52.00085300;4.17406100;2023-10-13T07:27:49;15.45;;;5.32;;
9799;SDS011;4939;52.00085300;4.17406100;2023-10-13T07:30:15;18.33;;;6.10;;
9799;SDS011;4939;52.00085300;4.17406100;2023-10-13T07:32:45;14.65;;;5.50;;
9799;SDS011;4939;52.00085300;4.17406100;2023-10-13T07:35:14;14.00;;;5.72;;
9799;SDS011;4939;52.00085300;4.17406100;2023-10-13T07:37:43;18.50;;;6.38;;
9799;SDS011;4939;52.00085300;4.17406100;2023-10-13T07:40:10;7.53;;;3.65;;
9799;SDS011;4939;52.00085300;4.17406100;2023-10-13T07:42:51;14.77;;;5.70;;
9799;SDS011;4939;52.00085300;4.17406100;2023-10-13T07:45:17;16.88;;;5.88;;
9799;SDS011;4939;52.00085300;4.17406100;2023-10-13T07:47:47;13.70;;;6.10;;
9799;SDS011;4939;52.00085300;4.17406100;2023-10-13T07:50:15;17.38;;;5.45;;
9799;SDS011;4939;52.00085300;4.17406100;2023-10-13T07:52:48;12.55;;;5.07;;
9799;SDS011;4939;52.00085300;4.17406100;2023-10-13T07:55:24;15.73;;;5.93;;
9799;SDS011;4939;52.00085300;4.17406100;2023-10-13T07:57:50;11.48;;;4.90;;
9799;SDS011;4939;52.00085300;4.17406100;2023-10-13T08:00:24;15.15;;;5.35;;
9799;SDS011;4939;52.00085300;4.17406100;2023-10-13T08:03:08;11.57;;;5.45;;
9799;SDS011;4939;52.00085300;4.17406100;2023-10-13T08:05:54;13.27;;;5.00;;
9799;SDS011;4939;52.00085300;4.17406100;2023-10-13T08:08:24;15.35;;;4.50;;
9799;SDS011;4939;52.00085300;4.17406100;2023-10-13T08:10:56;13.82;;;5.13;;
9799;SDS011;4939;52.00085300;4.17406100;2023-10-13T08:13:28;15.50;;;5.25;;
9799;SDS011;4939;52.00085300;4.17406100;2023-10-13T08:15:54;16.90;;;4.50;;
9799;SDS011;4939;52.00085300;4.17406100;2023-10-13T08:18:20;12.98;;;4.70;;
9799;SDS011;4939;52.00085300;4.17406100;2023-10-13T08:20:58;14.38;;;4.32;;
9799;SDS011;4939;52.00085300;4.17406100;2023-10-13T08:23:29;15.48;;;3.88;;
9799;SDS011;4939;52.00085300;4.17406100;2023-10-13T08:26:21;11.45;;;3.70;;
9799;SDS011;4939;52.00085300;4.17406100;2023-10-13T08:29:00;12.93;;;3.92;;
9799;SDS011;4939;52.00085300;4.17406100;2023-10-13T08:31:52;10.60;;;3.55;;
9799;SDS011;4939;52.00085300;4.17406100;2023-10-13T08:34:36;9.45;;;3.45;;
9799;SDS011;4939;52.00085300;4.17406100;2023-10-13T08:37:08;13.10;;;4.53;;
9799;SDS011;4939;52.00085300;4.17406100;2023-10-13T08:39:50;12.57;;;3.97;;
9799;SDS011;4939;52.00085300;4.17406100;2023-10-13T08:42:32;12.52;;;3.95;;
9799;SDS011;4939;52.00085300;4.17406100;2023-10-13T08:45:11;9.73;;;3.80;;
9799;SDS011;4939;52.00085300;4.17406100;2023-10-13T08:47:59;11.77;;;3.15;;
9799;SDS011;4939;52.00085300;4.17406100;2023-10-13T08:50:44;14.02;;;4.45;;
9799;SDS011;4939;52.00085300;4.17406100;2023-10-13T08:53:27;9.63;;;3.83;;
9799;SDS011;4939;52.00085300;4.17406100;2023-10-13T08:56:03;10.88;;;3.70;;
9799;SDS011;4939;52.00085300;4.17406100;2023-10-13T08:58:33;10.98;;;4.03;;
9799;SDS011;4939;52.00085300;4.17406100;2023-10-13T09:01:23;14.02;;;4.57;;
9799;SDS011;4939;52.00085300;4.17406100;2023-10-13T09:04:09;12.15;;;3.72;;
9799;SDS011;4939;52.00085300;4.17406100;2023-10-13T09:06:49;10.40;;;4.05;;
9799;SDS011;4939;52.00085300;4.17406100;2023-10-13T09:09:25;9.35;;;3.50;;
9799;SDS011;4939;52.00085300;4.17406100;2023-10-13T09:12:10;14.23;;;4.00;;
9799;SDS011;4939;52.00085300;4.17406100;2023-10-13T09:14:36;13.88;;;4.13;;
9799;SDS011;4939;52.00085300;4.17406100;2023-10-13T09:22:21;11.85;;;4.32;;
9799;SDS011;4939;52.00085300;4.17406100;2023-10-13T09:25:04;13.10;;;4.30;;
9799;SDS011;4939;52.00085300;4.17406100;2023-10-13T09:27:30;12.13;;;3.85;;
9799;SDS011;4939;52.00085300;4.17406100;2023-10-13T09:32:35;11.43;;;3.95;;
9799;SDS011;4939;52.00085300;4.17406100;2023-10-13T09:35:11;13.68;;;3.97;;
9799;SDS011;4939;52.00085300;4.17406100;2023-10-13T09:37:44;13.15;;;3.78;;
9799;SDS011;4939;52.00085300;4.17406100;2023-10-13T09:40:16;15.30;;;3.80;;
9799;SDS011;4939;52.00085300;4.17406100;2023-10-13T09:42:58;15.10;;;3.97;;
9799;SDS011;4939;52.00085300;4.17406100;2023-10-13T09:45:31;14.95;;;4.30;;
9799;SDS011;4939;52.00085300;4.17406100;2023-10-13T09:51:06;13.20;;;4.55;;
9799;SDS011;4939;52.00085300;4.17406100;2023-10-13T09:53:37;8.43;;;3.38;;
9799;SDS011;4939;52.00085300;4.17406100;2023-10-13T09:56:10;11.75;;;3.53;;
9799;SDS011;4939;52.00085300;4.17406100;2023-10-13T09:58:55;14.00;;;4.05;;
9799;SDS011;4939;52.00085300;4.17406100;2023-10-13T10:01:27;11.13;;;4.38;;
9799;SDS011;4939;52.00085300;4.17406100;2023-10-13T10:04:06;9.67;;;3.67;;
9799;SDS011;4939;52.00085300;4.17406100;2023-10-13T10:07:05;14.45;;;3.67;;
9799;SDS011;4939;52.00085300;4.17406100;2023-10-13T10:09:30;10.52;;;3.60;;
9799;SDS011;4939;52.00085300;4.17406100;2023-10-13T10:17:24;21.85;;;4.50;;
9799;SDS011;4939;52.00085300;4.17406100;2023-10-13T10:19:54;10.93;;;3.78;;
9799;SDS011;4939;52.00085300;4.17406100;2023-10-13T10:22:28;11.00;;;3.95;;
9799;SDS011;4939;52.00085300;4.17406100;2023-10-13T10:25:01;13.38;;;4.18;;
9799;SDS011;4939;52.00085300;4.17406100;2023-10-13T10:27:29;13.90;;;4.82;;
9799;SDS011;4939;52.00085300;4.17406100;2023-10-13T10:29:56;18.00;;;4.88;;
9799;SDS011;4939;52.00085300;4.17406100;2023-10-13T10:32:32;13.32;;;4.35;;
9799;SDS011;4939;52.00085300;4.17406100;2023-10-13T10:35:05;10.23;;;4.43;;
9799;SDS011;4939;52.00085300;4.17406100;2023-10-13T10:37:40;11.43;;;4.07;;
9799;SDS011;4939;52.00085300;4.17406100;2023-10-13T10:40:12;15.70;;;4.22;;
9799;SDS011;4939;52.00085300;4.17406100;2023-10-13T10:42:58;11.13;;;4.20;;
9799;SDS011;4939;52.00085300;4.17406100;2023-10-13T10:45:26;14.98;;;4.30;;
9799;SDS011;4939;52.00085300;4.17406100;2023-10-13T10:47:59;13.80;;;4.35;;
9799;SDS011;4939;52.00085300;4.17406100;2023-10-13T10:50:25;14.15;;;4.75;;
9799;SDS011;4939;52.00085300;4.17406100;2023-10-13T10:53:03;14.05;;;4.53;;
9799;SDS011;4939;52.00085300;4.17406100;2023-10-13T10:55:35;13.57;;;4.00;;
9799;SDS011;4939;52.00085300;4.17406100;2023-10-13T10:58:03;14.85;;;4.63;;
9799;SDS011;4939;52.00085300;4.17406100;2023-10-13T11:00:31;13.73;;;4.30;;
9799;SDS011;4939;52.00085300;4.17406100;2023-10-13T11:03:11;12.60;;;4.60;;
9799;SDS011;4939;52.00085300;4.17406100;2023-10-13T11:05:44;11.18;;;3.70;;
9799;SDS011;4939;52.00085300;4.17406100;2023-10-13T11:08:23;11.68;;;4.80;;
9799;SDS011;4939;52.00085300;4.17406100;2023-10-13T11:10:57;16.17;;;4.90;;
9799;SDS011;4939;52.00085300;4.17406100;2023-10-13T11:13:25;14.35;;;4.45;;
9799;SDS011;4939;52.00085300;4.17406100;2023-10-13T11:15:55;16.75;;;4.70;;
9799;SDS011;4939;52.00085300;4.17406100;2023-10-13T11:18:28;14.30;;;4.13;;
9799;SDS011;4939;52.00085300;4.17406100;2023-10-13T11:21:02;14.07;;;4.57;;
9799;SDS011;4939;52.00085300;4.17406100;2023-10-13T11:23:32;13.40;;;4.75;;
9799;SDS011;4939;52.00085300;4.17406100;2023-10-13T11:26:01;13.43;;;4.72;;
9799;SDS011;4939;52.00085300;4.17406100;2023-10-13T11:28:29;11.25;;;4.53;;
9799;SDS011;4939;52.00085300;4.17406100;2023-10-13T11:30:59;13.30;;;4.07;;
9799;SDS011;4939;52.00085300;4.17406100;2023-10-13T11:33:29;13.50;;;4.35;;
9799;SDS011;4939;52.00085300;4.17406100;2023-10-13T11:35:56;14.50;;;4.18;;
9799;SDS011;4939;52.00085300;4.17406100;2023-10-13T11:41:06;15.27;;;3.92;;
9799;SDS011;4939;52.00085300;4.17406100;2023-10-13T11:43:40;12.15;;;4.72;;
9799;SDS011;4939;52.00085300;4.17406100;2023-10-13T11:46:18;11.02;;;4.18;;
9799;SDS011;4939;52.00085300;4.17406100;2023-10-13T11:49:01;14.02;;;4.53;;
9799;SDS011;4939;52.00085300;4.17406100;2023-10-13T11:51:33;11.02;;;3.80;;
9799;SDS011;4939;52.00085300;4.17406100;2023-10-13T11:54:03;16.75;;;4.10;;
9799;SDS011;4939;52.00085300;4.17406100;2023-10-13T11:56:29;11.90;;;4.00;;
9799;SDS011;4939;52.00085300;4.17406100;2023-10-13T11:58:55;12.10;;;4.70;;
9799;SDS011;4939;52.00085300;4.17406100;2023-10-13T12:01:26;17.20;;;4.50;;
9799;SDS011;4939;52.00085300;4.17406100;2023-10-13T12:04:11;17.67;;;4.18;;
9799;SDS011;4939;52.00085300;4.17406100;2023-10-13T12:06:55;19.73;;;5.50;;
9799;SDS011;4939;52.00085300;4.17406100;2023-10-13T12:09:42;11.60;;;5.05;;
9799;SDS011;4939;52.00085300;4.17406100;2023-10-13T12:12:21;14.68;;;4.65;;
9799;SDS011;4939;52.00085300;4.17406100;2023-10-13T12:14:49;17.50;;;5.40;;
9799;SDS011;4939;52.00085300;4.17406100;2023-10-13T12:17:21;9.60;;;5.22;;
9799;SDS011;4939;52.00085300;4.17406100;2023-10-13T12:19:59;15.07;;;4.85;;
9799;SDS011;4939;52.00085300;4.17406100;2023-10-13T12:22:26;18.27;;;6.18;;
9799;SDS011;4939;52.00085300;4.17406100;2023-10-13T12:24:57;18.70;;;6.32;;
9799;SDS011;4939;52.00085300;4.17406100;2023-10-13T12:27:22;21.90;;;5.63;;
9799;SDS011;4939;52.00085300;4.17406100;2023-10-13T12:29:51;13.77;;;5.65;;
9799;SDS011;4939;52.00085300;4.17406100;2023-10-13T12:32:18;23.48;;;5.70;;
9799;SDS011;4939;52.00085300;4.17406100;2023-10-13T12:34:55;15.82;;;5.40;;
9799;SDS011;4939;52.00085300;4.17406100;2023-10-13T12:37:25;15.73;;;4.82;;
9799;SDS011;4939;52.00085300;4.17406100;2023-10-13T12:40:07;18.50;;;5.30;;
9799;SDS011;4939;52.00085300;4.17406100;2023-10-13T12:45:44;20.17;;;5.75;;
9799;SDS011;4939;52.00085300;4.17406100;2023-10-13T12:48:30;17.90;;;5.07;;
9799;SDS011;4939;52.00085300;4.17406100;2023-10-13T12:51:16;14.52;;;4.80;;
9799;SDS011;4939;52.00085300;4.17406100;2023-10-13T12:53:48;20.88;;;5.13;;
9799;SDS011;4939;52.00085300;4.17406100;2023-10-13T12:56:15;12.52;;;4.88;;
9799;SDS011;4939;52.00085300;4.17406100;2023-10-13T12:58:42;20.77;;;5.03;;
9799;SDS011;4939;52.00085300;4.17406100;2023-10-13T13:01:17;18.58;;;5.60;;
9799;SDS011;4939;52.00085300;4.17406100;2023-10-13T13:03:47;14.30;;;5.30;;
9799;SDS011;4939;52.00085300;4.17406100;2023-10-13T13:06:19;19.30;;;4.80;;
9799;SDS011;4939;52.00085300;4.17406100;2023-10-13T13:08:55;14.23;;;4.90;;
9799;SDS011;4939;52.00085300;4.17406100;2023-10-13T13:11:22;15.98;;;4.93;;
9799;SDS011;4939;52.00085300;4.17406100;2023-10-13T13:13:48;11.52;;;4.63;;
9799;SDS011;4939;52.00085300;4.17406100;2023-10-13T13:16:14;19.15;;;5.18;;
9799;SDS011;4939;52.00085300;4.17406100;2023-10-13T13:18:43;16.48;;;5.00;;
9799;SDS011;4939;52.00085300;4.17406100;2023-10-13T13:21:09;14.35;;;5.20;;
9799;SDS011;4939;52.00085300;4.17406100;2023-10-13T13:23:51;17.17;;;4.60;;
9799;SDS011;4939;52.00085300;4.17406100;2023-10-13T13:26:20;16.42;;;4.35;;
9799;SDS011;4939;52.00085300;4.17406100;2023-10-13T13:28:47;16.48;;;4.63;;
9799;SDS011;4939;52.00085300;4.17406100;2023-10-13T13:31:17;16.05;;;4.78;;
9799;SDS011;4939;52.00085300;4.17406100;2023-10-13T13:33:43;21.35;;;4.80;;
9799;SDS011;4939;52.00085300;4.17406100;2023-10-13T13:36:09;26.85;;;5.15;;
9799;SDS011;4939;52.00085300;4.17406100;2023-10-13T13:38:40;18.52;;;5.32;;
9799;SDS011;4939;52.00085300;4.17406100;2023-10-13T13:41:12;21.02;;;5.25;;
9799;SDS011;4939;52.00085300;4.17406100;2023-10-13T13:43:45;21.92;;;5.03;;
9799;SDS011;4939;52.00085300;4.17406100;2023-10-13T13:46:34;22.92;;;4.47;;
9799;SDS011;4939;52.00085300;4.17406100;2023-10-13T13:49:07;24.10;;;5.43;;
9799;SDS011;4939;52.00085300;4.17406100;2023-10-13T13:51:42;21.63;;;4.65;;
9799;SDS011;4939;52.00085300;4.17406100;2023-10-13T13:54:08;26.38;;;5.47;;
9799;SDS011;4939;52.00085300;4.17406100;2023-10-13T13:56:34;35.20;;;5.72;;
9799;SDS011;4939;52.00085300;4.17406100;2023-10-13T13:59:03;33.67;;;6.03;;
9799;SDS011;4939;52.00085300;4.17406100;2023-10-13T14:01:33;25.75;;;5.32;;